メインページ
METAR-TAF:

METAR-TAF

空港 :

ウィーン, オーストリア

ウィーン国際空港

緯度: 48-07N, 経度: 016-34E, 海抜: 183m

現時点の気象観測

当レポートは31分前の18:50(UTC)に作成
の風 9kt
気温 -10°C
湿度 67%
気圧 1024 hPa
視程10km以上
1,500メートル以下は雲なし、積乱雲なし

METAR: LOWW 251850Z 36009KT CAVOK M10/M15 Q1024 R88/15//95 NOSIG

時間: 20:21 (19:21 UTC)

予報

当レポートは2時間6分前の17:15(UTC)に作成
予報は25日の 18時(UTC)から 26日の 24時(UTC)まで有効
の風 8kt
視程10km以上
1,500メートル以下は雲なし、積乱雲なし
26日の 08時(UTC)から 26日の 12時(UTC)まで徐々に
の風 13kt
視程10km以上
高度4000ftの雲は散在している
26日の 10時(UTC)から 26日の 24時(UTC)まで一時的に
の風 15kt、最大25ktの突風を伴う

TAF: LOWW 251715Z 2518/2624 36008KT CAVOK TXM06/2613Z TNM13/2606Z BECMG 2608/2612 35013KT 9999 SCT040 TEMPO 2610/2624 36015G25KT

4,000以上の空港の気象観測と天気予報(METAR報とTAF報)

利用可能な観測所は地図上に黄色い丸と赤い丸で示す。

丸の上にカーソルを重ねると観測所名を参照できる。

次にクリックすると気象観測と天気予報を参照できる。

マップの切り替え:黒色「×」印の緑ボタンをクリックして拡大、「-」印の緑ボタンをクリックして縮小、緑色の三角印をクリックして隣りの地図に切り替え


METAR-TAF: